Time;durP1;ratioP1;P1;durP2;ratioP2;P2;SDS_P1;SDS_P2;PMS_P1;PMS_P2;Temp;Humidity;BMP_temperature;BMP_pressure;BME280_temperature;BME280_humidity;BME280_pressure;Samples;Min_cycle;Max_cycle;Signal;HPM_P1;HPM_P2
2023/06/24 09:45:32;;;;;;;6.03;5.82;;;;;;;34.60;40.49;96969.28;4995310;28;20419;-63
2023/06/24 09:47:59;;;;;;;5.65;5.47;;;;;;;34.45;41.24;96972.50;4965035;28;20145;-61
2023/06/24 09:50:26;;;;;;;4.72;4.63;;;;;;;32.77;42.92;96980.31;4962517;28;20478;-63
2023/06/24 09:52:56;;;;;;;5.30;5.20;;;;;;;31.95;44.78;96977.97;4960684;28;20059;-64
2023/06/24 09:55:25;;;;;;;5.35;5.25;;;;;;;31.88;45.85;96975.63;4961958;28;20564;-60
2023/06/24 09:57:53;;;;;;;5.25;5.15;;;;;;;31.08;46.97;96978.97;4962583;28;20384;-61
2023/06/24 10:00:21;;;;;;;4.97;4.88;;;;;;;31.22;47.57;96972.31;4962610;28;20066;-62
2023/06/24 10:02:49;;;;;;;4.80;4.70;;;;;;;31.20;46.75;96963.44;4962034;28;20154;-60
2023/06/24 10:05:16;;;;;;;5.07;4.97;;;;;;;31.85;46.75;96968.06;4962346;28;20560;-63
2023/06/24 10:07:43;;;;;;;5.00;4.90;;;;;;;31.87;45.56;96953.97;4961734;28;20047;-62
2023/06/24 10:10:10;;;;;;;5.13;5.03;;;;;;;31.79;45.27;96924.25;4961839;28;20502;-64
2023/06/24 10:12:37;;;;;;;4.63;4.53;;;;;;;32.17;43.87;96880.59;4962097;28;20046;-61
2023/06/24 10:15:05;;;;;;;5.18;5.07;;;;;;;32.78;43.08;96883.53;4962254;28;20074;-62
2023/06/24 10:17:32;;;;;;;5.28;5.18;;;;;;;32.12;43.71;96941.59;4961869;28;20051;-64
2023/06/24 10:20:03;;;;;;;5.03;4.93;;;;;;;31.18;45.09;96938.19;4961797;28;20442;-67
2023/06/24 10:22:31;;;;;;;4.97;4.88;;;;;;;31.09;46.67;96934.72;4974474;28;20047;-61
2023/06/24 10:25:05;;;;;;;4.70;4.60;;;;;;;30.25;46.63;96867.44;4980507;28;20055;-63
2023/06/24 10:27:39;;;;;;;4.75;4.65;;;;;;;31.43;46.76;96930.81;4969969;28;20050;-63
2023/06/24 10:30:07;;;;;;;4.97;4.88;;;;;;;31.58;44.84;96932.22;4968197;28;20050;-67
2023/06/24 10:32:43;;;;;;;5.20;5.10;;;;;;;32.15;43.73;96897.53;4970901;28;20477;-62
2023/06/24 10:35:31;;;;;;;4.57;4.47;;;;;;;32.23;44.69;96930.91;4971291;28;20118;-62
2023/06/24 10:38:00;;;;;;;4.85;4.75;;;;;;;32.01;43.60;96832.63;4970642;28;20141;-61
2023/06/24 10:40:42;;;;;;;5.25;5.15;;;;;;;32.14;44.66;96904.56;4973986;28;20052;-61
2023/06/24 10:43:24;;;;;;;5.22;5.13;;;;;;;32.14;44.92;96921.75;4962018;28;20053;-59
2023/06/24 10:45:55;;;;;;;4.65;4.55;;;;;;;31.58;45.76;96914.22;4970767;28;20046;-63
2023/06/24 10:48:22;;;;;;;4.70;4.60;;;;;;;31.90;45.08;96915.72;4980037;28;20050;-62
2023/06/24 10:50:49;;;;;;;4.97;4.88;;;;;;;30.36;44.90;96673.16;4980957;28;20046;-59
2023/06/24 10:53:18;;;;;;;4.60;4.50;;;;;;;32.06;43.85;96910.03;4978803;28;20042;-60
2023/06/24 10:55:46;;;;;;;5.15;5.05;;;;;;;32.36;43.01;96904.59;4962155;28;20146;-59
2023/06/24 10:58:15;;;;;;;5.32;5.22;;;;;;;32.75;43.12;96901.81;4967637;28;20054;-60
2023/06/24 11:00:43;;;;;;;4.88;4.78;;;;;;;33.02;41.86;96893.19;4982441;28;20407;-60
2023/06/24 11:03:12;;;;;;;5.40;5.30;;;;;;;33.38;41.55;96909.34;4967705;28;20058;-60
2023/06/24 11:05:41;;;;;;;4.78;4.68;;;;;;;33.64;40.40;96898.31;4965844;28;20065;-60
2023/06/24 11:08:08;;;;;;;4.93;4.82;;;;;;;33.32;39.07;96864.69;4967467;28;20055;-60
2023/06/24 11:10:47;;;;;;;5.53;5.40;;;;;;;33.04;40.30;96890.59;4982372;28;20063;-60
2023/06/24 11:13:14;;;;;;;5.07;4.97;;;;;;;33.31;40.08;96898.38;4967861;28;20062;-60
2023/06/24 11:15:42;;;;;;;5.30;5.20;;;;;;;33.41;41.22;96884.53;4967356;28;20134;-61
2023/06/24 11:18:10;;;;;;;5.95;5.75;;;;;;;33.12;40.12;96873.59;4967548;28;20058;-61
2023/06/24 11:20:38;;;;;;;4.93;4.82;;;;;;;33.20;40.18;96892.66;4967441;28;20348;-59
2023/06/24 11:23:10;;;;;;;4.60;4.50;;;;;;;32.97;40.00;96879.66;4967129;28;20094;-59
2023/06/24 11:25:42;;;;;;;4.70;4.60;;;;;;;32.88;40.76;96879.91;4967588;28;20153;-59
2023/06/24 11:28:17;;;;;;;5.10;5.00;;;;;;;32.77;41.14;96871.28;4967266;28;20150;-61
2023/06/24 11:30:48;;;;;;;4.85;4.75;;;;;;;33.30;40.10;96868.09;4967324;28;20050;-61
2023/06/24 11:33:26;;;;;;;5.03;4.93;;;;;;;32.96;40.77;96843.63;4982261;28;20062;-60
2023/06/24 11:35:53;;;;;;;4.80;4.70;;;;;;;32.97;39.86;96850.94;4967211;28;20530;-61
2023/06/24 11:38:20;;;;;;;5.00;4.90;;;;;;;32.31;41.75;96817.25;4967710;28;20054;-59
2023/06/24 11:40:48;;;;;;;4.88;4.78;;;;;;;32.47;41.34;96795.66;4966838;28;20058;-60
2023/06/24 11:43:15;;;;;;;5.05;4.95;;;;;;;32.58;40.63;96795.63;4967156;28;20051;-59
2023/06/24 11:45:41;;;;;;;4.55;4.45;;;;;;;32.38;41.58;96770.09;4959284;28;20063;-60
2023/06/24 11:48:08;;;;;;;4.90;4.80;;;;;;;32.99;41.39;96842.56;4947582;28;20055;-59
2023/06/24 11:50:36;;;;;;;5.18;5.07;;;;;;;33.34;40.68;96834.13;4962509;28;20048;-60
2023/06/24 11:53:03;;;;;;;4.65;4.55;;;;;;;33.52;40.32;96789.69;4947328;28;20063;-60
2023/06/24 11:55:31;;;;;;;5.10;5.00;;;;;;;33.99;38.94;96859.53;4947506;28;20051;-62
2023/06/24 11:58:04;;;;;;;4.95;4.85;;;;;;;33.39;39.73;96801.75;4947312;28;20059;-60
2023/06/24 12:00:36;;;;;;;5.43;5.30;;;;;;;33.72;39.37;96807.34;4961942;28;20138;-59
2023/06/24 12:03:08;;;;;;;4.50;4.40;;;;;;;33.93;39.15;96830.00;4946705;28;20114;-61
2023/06/24 12:05:40;;;;;;;5.35;5.25;;;;;;;33.89;38.25;96812.22;4947036;28;20063;-60
2023/06/24 12:08:08;;;;;;;5.50;5.35;;;;;;;34.00;38.86;96780.56;4946392;28;20051;-59
2023/06/24 12:10:38;;;;;;;5.15;5.05;;;;;;;34.71;38.72;96813.75;4947328;28;20059;-59
2023/06/24 12:13:06;;;;;;;4.78;4.68;;;;;;;34.56;38.23;96787.44;4947019;28;20138;-59
2023/06/24 12:15:33;;;;;;;5.10;5.00;;;;;;;34.88;38.28;96815.19;4946889;28;20058;-59
2023/06/24 12:18:01;;;;;;;4.85;4.75;;;;;;;34.97;37.38;96774.50;4946837;28;20053;-59
2023/06/24 12:20:30;;;;;;;4.70;4.60;;;;;;;35.56;36.92;96810.25;4946926;28;20161;-59
2023/06/24 12:23:01;;;;;;;5.00;4.90;;;;;;;35.52;36.56;96816.31;4960765;28;20082;-60
2023/06/24 12:25:28;;;;;;;5.13;5.03;;;;;;;35.38;37.15;96805.25;4961378;28;20055;-59
2023/06/24 12:27:55;;;;;;;5.20;5.10;;;;;;;36.34;36.25;96799.97;4955684;28;20046;-60
2023/06/24 12:30:22;;;;;;;5.18;5.07;;;;;;;36.82;35.26;96795.28;4966268;28;20476;-61
2023/06/24 12:32:52;;;;;;;5.18;5.07;;;;;;;37.53;33.85;96816.22;4966178;28;20161;-61
2023/06/24 12:35:19;;;;;;;5.20;5.10;;;;;;;37.89;33.00;96797.09;4966305;28;20530;-60
2023/06/24 12:37:47;;;;;;;5.78;5.57;;;;;;;38.16;32.52;96792.78;4964443;28;20053;-59
2023/06/24 12:40:14;;;;;;;5.18;5.07;;;;;;;38.19;33.79;96791.69;4966195;28;20444;-62
2023/06/24 12:42:41;;;;;;;5.18;5.07;;;;;;;38.55;32.02;96757.88;4965740;28;20058;-60
2023/06/24 12:45:08;;;;;;;5.22;5.13;;;;;;;37.53;32.55;96755.50;4965421;28;20059;-60
2023/06/24 12:47:35;;;;;;;5.10;5.00;;;;;;;39.39;31.71;96786.22;4965882;28;20046;-60
2023/06/24 12:50:06;;;;;;;5.38;5.25;;;;;;;39.22;31.11;96783.03;4966386;28;20506;-60
2023/06/24 12:52:35;;;;;;;5.28;5.18;;;;;;;39.28;31.50;96781.50;4965828;28;20086;-60
2023/06/24 12:55:03;;;;;;;5.13;5.03;;;;;;;38.77;31.98;96777.63;4966091;28;20049;-60
2023/06/24 12:57:30;;;;;;;5.68;5.47;;;;;;;38.80;31.98;96747.50;4947683;28;20063;-59
2023/06/24 12:59:57;;;;;;;5.63;5.43;;;;;;;38.44;32.70;96754.50;4946566;28;20094;-59
2023/06/24 13:02:23;;;;;;;5.72;5.53;;;;;;;36.57;34.51;96771.53;4946094;28;20047;-59
2023/06/24 13:04:50;;;;;;;5.13;5.03;;;;;;;36.28;35.74;96761.75;4946415;28;20142;-62
2023/06/24 13:07:17;;;;;;;5.10;5.00;;;;;;;36.20;36.26;96766.59;4946021;28;20070;-59
2023/06/24 13:09:43;;;;;;;5.65;5.45;;;;;;;35.65;36.83;96750.09;4946424;28;20047;-61
2023/06/24 13:12:10;;;;;;;5.55;5.40;;;;;;;35.58;36.29;96733.44;4945968;28;20054;-59
2023/06/24 13:14:37;;;;;;;5.68;5.47;;;;;;;35.60;36.82;96753.84;4946612;28;20062;-59
2023/06/24 13:17:04;;;;;;;5.07;4.97;;;;;;;35.53;37.06;96756.56;4946372;28;20047;-60
2023/06/24 13:19:32;;;;;;;5.20;5.10;;;;;;;33.30;39.02;96735.97;4946143;28;20055;-59
2023/06/24 13:21:59;;;;;;;4.88;4.78;;;;;;;32.26;41.23;96699.72;4946249;28;20134;-59
2023/06/24 13:24:26;;;;;;;5.20;5.10;;;;;;;32.68;41.96;96724.41;4960746;28;20138;-59
2023/06/24 13:26:52;;;;;;;5.28;5.18;;;;;;;32.83;41.86;96724.91;4945813;28;20094;-59
2023/06/24 13:29:20;;;;;;;5.20;5.10;;;;;;;33.50;41.83;96738.50;4965376;28;20055;-60
2023/06/24 13:31:47;;;;;;;5.35;5.25;;;;;;;34.27;39.48;96727.81;4965333;28;20055;-59
2023/06/24 13:34:14;;;;;;;5.07;4.97;;;;;;;34.07;39.14;96716.72;4963712;28;20142;-60
2023/06/24 13:36:41;;;;;;;5.35;5.25;;;;;;;34.49;39.26;96730.50;4964439;28;20077;-61
2023/06/24 13:39:12;;;;;;;5.20;5.10;;;;;;;34.95;38.83;96738.94;4964207;28;20051;-62
2023/06/24 13:41:39;;;;;;;5.00;4.90;;;;;;;35.09;38.90;96737.72;4963731;28;20054;-61
2023/06/24 13:44:06;;;;;;;5.43;5.32;;;;;;;35.33;37.44;96737.66;4964504;28;20849;-61
2023/06/24 13:46:33;;;;;;;4.78;4.68;;;;;;;35.87;36.96;96732.50;4964620;28;20042;-60
2023/06/24 13:49:00;;;;;;;5.38;5.28;;;;;;;36.01;37.19;96730.47;4965257;28;20527;-61
2023/06/24 13:51:31;;;;;;;5.55;5.38;;;;;;;35.82;37.12;96701.63;4964868;28;20074;-60
2023/06/24 13:53:58;;;;;;;5.22;5.13;;;;;;;36.75;35.98;96723.69;4955806;28;20055;-62
2023/06/24 13:56:26;;;;;;;5.82;5.63;;;;;;;37.15;34.82;96725.31;4945396;28;20055;-60
2023/06/24 13:58:53;;;;;;;5.30;5.20;;;;;;;38.83;32.07;96734.78;4960249;28;20054;-62
2023/06/24 14:01:21;;;;;;;5.35;5.25;;;;;;;39.49;31.19;96696.59;4945592;28;20066;-60
2023/06/24 14:03:49;;;;;;;5.30;5.20;;;;;;;40.16;30.49;96742.47;4960435;28;20059;-60
2023/06/24 14:06:17;;;;;;;5.72;5.53;;;;;;;40.86;29.87;96755.22;4959917;28;20534;-61
2023/06/24 14:08:44;;;;;;;5.68;5.47;;;;;;;40.20;30.46;96667.41;4945380;29;20062;-60
2023/06/24 14:11:11;;;;;;;5.97;5.78;;;;;;;40.65;29.90;96748.78;4945160;28;20055;-60
2023/06/24 14:13:40;;;;;;;5.10;5.00;;;;;;;41.14;29.29;96740.47;4959868;28;20539;-60
2023/06/24 14:16:06;;;;;;;4.72;4.63;;;;;;;41.66;29.19;96736.69;4945404;28;20055;-60
2023/06/24 14:18:34;;;;;;;5.22;5.13;;;;;;;42.34;28.17;96747.25;4946053;28;20566;-60
2023/06/24 14:21:03;;;;;;;5.38;5.28;;;;;;;40.61;29.26;96743.34;4944070;29;20070;-60
2023/06/24 14:23:30;;;;;;;5.50;5.38;;;;;;;40.39;29.80;96760.78;4945607;28;20055;-59
2023/06/24 14:25:59;;;;;;;5.32;5.22;;;;;;;39.75;30.55;96719.50;4945176;28;20656;-61
2023/06/24 14:28:26;;;;;;;5.35;5.25;;;;;;;39.13;31.79;96745.84;4968326;28;20055;-59
2023/06/24 14:30:53;;;;;;;5.80;5.60;;;;;;;38.96;32.04;96754.19;4965811;28;20046;-59
2023/06/24 14:33:20;;;;;;;5.97;5.78;;;;;;;39.01;32.30;96762.78;4967620;28;20106;-59
2023/06/24 14:35:46;;;;;;;5.38;5.28;;;;;;;38.69;32.63;96759.41;4967094;28;20050;-61
2023/06/24 14:38:13;;;;;;;5.53;5.40;;;;;;;38.45;32.73;96768.41;4967125;28;20051;-60
2023/06/24 14:40:40;;;;;;;4.97;4.88;;;;;;;38.00;33.30;96758.44;4967016;28;20541;-59
2023/06/24 14:43:06;;;;;;;5.15;5.05;;;;;;;37.55;32.73;96697.91;4966498;28;20338;-60
2023/06/24 14:45:33;;;;;;;6.05;5.85;;;;;;;37.90;32.99;96717.63;4966614;28;20533;-60
2023/06/24 14:48:00;;;;;;;5.45;5.30;;;;;;;38.12;33.22;96757.66;4966873;28;20078;-61
2023/06/24 14:50:26;;;;;;;5.60;5.40;;;;;;;37.67;34.33;96759.97;4968206;28;20053;-61
2023/06/24 14:52:53;;;;;;;6.00;5.80;;;;;;;37.25;33.69;96761.09;4966095;28;20055;-60
2023/06/24 14:55:20;;;;;;;5.20;5.10;;;;;;;36.95;35.17;96777.94;4967755;28;20054;-59
2023/06/24 14:57:47;;;;;;;5.32;5.22;;;;;;;36.26;35.80;96775.94;4967361;28;20506;-59
2023/06/24 15:00:13;;;;;;;5.22;5.13;;;;;;;36.07;36.44;96778.09;4968179;28;20437;-60
2023/06/24 15:02:40;;;;;;;5.30;5.20;;;;;;;35.80;36.95;96766.94;4967834;28;20065;-60
2023/06/24 15:05:07;;;;;;;5.30;5.20;;;;;;;35.41;37.36;96704.06;4967949;28;20055;-60
2023/06/24 15:07:35;;;;;;;5.53;5.40;;;;;;;35.50;37.23;96777.84;4982487;28;20070;-61
2023/06/24 15:10:02;;;;;;;5.38;5.28;;;;;;;35.25;37.10;96768.44;4967652;28;20586;-60
2023/06/24 15:12:28;;;;;;;5.38;5.28;;;;;;;34.64;37.94;96765.41;4967778;28;20553;-60
2023/06/24 15:14:55;;;;;;;4.70;4.60;;;;;;;34.69;38.77;96762.47;4966933;28;20055;-60
2023/06/24 15:17:22;;;;;;;5.35;5.25;;;;;;;34.38;39.43;96759.34;4967385;28;20062;-61
2023/06/24 15:19:51;;;;;;;5.25;5.15;;;;;;;34.32;40.02;96750.00;4966280;28;20050;-60
2023/06/24 15:22:17;;;;;;;5.50;5.38;;;;;;;34.06;40.78;96749.66;4967251;28;20201;-60
2023/06/24 15:24:44;;;;;;;5.72;5.53;;;;;;;33.97;40.82;96752.88;4982084;28;20047;-61
2023/06/24 15:27:11;;;;;;;5.25;5.15;;;;;;;33.95;41.43;96761.25;4965616;28;20055;-59
2023/06/24 15:29:38;;;;;;;5.50;5.40;;;;;;;33.88;41.49;96761.81;4980127;28;20583;-60
2023/06/24 15:32:05;;;;;;;5.40;5.30;;;;;;;33.73;42.25;96768.66;4966960;28;20054;-60
2023/06/24 15:34:32;;;;;;;4.85;4.75;;;;;;;33.53;42.27;96743.19;4967509;28;20051;-60
2023/06/24 15:36:58;;;;;;;5.05;4.95;;;;;;;33.37;43.10;96781.38;4966485;28;20548;-61
2023/06/24 15:39:25;;;;;;;5.18;5.07;;;;;;;33.33;43.45;96774.34;4981558;28;20054;-60
2023/06/24 15:41:52;;;;;;;4.70;4.60;;;;;;;32.90;44.45;96747.34;4966848;28;20059;-59
2023/06/24 15:44:18;;;;;;;5.15;5.05;;;;;;;32.80;44.99;96764.03;4981384;28;20134;-61
2023/06/24 15:46:46;;;;;;;4.50;4.40;;;;;;;32.93;44.58;96780.75;4966593;28;20055;-60
2023/06/24 15:49:15;;;;;;;5.30;5.20;;;;;;;32.93;45.69;96784.41;4967371;28;20477;-60
2023/06/24 15:51:42;;;;;;;4.78;4.68;;;;;;;32.78;47.17;96781.03;4981506;28;20089;-60
2023/06/24 15:54:08;;;;;;;5.43;5.32;;;;;;;32.60;47.80;96781.56;4966982;28;20066;-60
2023/06/24 15:56:36;;;;;;;5.13;5.03;;;;;;;32.47;48.35;96784.16;4976875;28;20566;-60
2023/06/24 15:59:03;;;;;;;4.95;4.85;;;;;;;32.20;48.54;96776.34;4947697;28;20055;-60
2023/06/24 16:01:29;;;;;;;5.07;4.97;;;;;;;32.22;48.04;96779.47;4961833;28;20541;-61
2023/06/24 16:03:56;;;;;;;4.80;4.70;;;;;;;32.29;47.91;96784.69;4947492;28;20055;-61
2023/06/24 16:06:23;;;;;;;4.82;4.72;;;;;;;32.46;47.07;96778.97;4947155;28;20063;-61
2023/06/24 16:08:50;;;;;;;4.90;4.80;;;;;;;31.55;47.28;96680.41;4947886;28;20054;-61
2023/06/24 16:11:17;;;;;;;5.22;5.13;;;;;;;32.05;47.65;96752.88;4947351;28;20080;-63
2023/06/24 16:13:44;;;;;;;4.78;4.68;;;;;;;32.17;47.09;96794.56;4947272;28;20490;-61
2023/06/24 16:16:11;;;;;;;5.30;5.20;;;;;;;31.34;48.94;96722.00;4947075;28;20085;-60
2023/06/24 16:18:38;;;;;;;4.95;4.85;;;;;;;31.43;48.91;96753.25;4947268;29;20047;-60
2023/06/24 16:21:04;;;;;;;5.07;4.97;;;;;;;31.58;49.20;96788.19;4947060;28;20055;-60
2023/06/24 16:23:31;;;;;;;4.90;4.80;;;;;;;31.54;49.87;96793.38;4947073;28;20271;-60
2023/06/24 16:25:58;;;;;;;4.80;4.70;;;;;;;31.50;50.14;96804.31;4946367;28;20590;-60
2023/06/24 16:28:25;;;;;;;5.20;5.10;;;;;;;31.49;50.28;96797.03;4952846;28;20109;-62
2023/06/24 16:30:51;;;;;;;5.40;5.25;;;;;;;31.43;50.33;96793.34;4965948;28;20054;-60
2023/06/24 16:33:18;;;;;;;4.72;4.63;;;;;;;31.31;51.02;96791.75;4964951;28;20617;-62
2023/06/24 16:35:45;;;;;;;5.15;5.05;;;;;;;31.43;50.56;96799.06;4964021;28;20537;-61
2023/06/24 16:38:11;;;;;;;4.60;4.50;;;;;;;31.29;50.82;96771.41;4966115;28;20043;-61
2023/06/24 16:40:38;;;;;;;5.07;4.97;;;;;;;31.36;50.69;96785.25;4965891;28;20498;-61
2023/06/24 16:43:05;;;;;;;5.10;5.00;;;;;;;30.73;49.52;96702.44;4965578;28;20441;-59
2023/06/24 16:45:32;;;;;;;5.07;4.97;;;;;;;31.14;49.81;96799.44;4965707;28;20553;-60
2023/06/24 16:47:58;;;;;;;4.95;4.85;;;;;;;31.07;50.45;96791.34;4964215;28;20530;-59
2023/06/24 16:50:25;;;;;;;4.90;4.80;;;;;;;31.02;50.57;96780.63;4966223;28;20054;-60
2023/06/24 16:52:52;;;;;;;4.85;4.75;;;;;;;30.87;51.94;96793.06;4965208;28;20137;-60
2023/06/24 16:55:18;;;;;;;4.75;4.65;;;;;;;30.80;53.55;96782.09;4965799;28;20061;-60
2023/06/24 16:57:45;;;;;;;4.20;4.10;;;;;;;30.74;55.06;96784.13;4965579;28;20054;-61
2023/06/24 17:00:12;;;;;;;4.65;4.55;;;;;;;30.40;55.25;96748.00;4965793;28;20055;-60
2023/06/24 17:02:41;;;;;;;4.82;4.72;;;;;;;30.25;55.11;96793.13;4964965;28;20453;-61
2023/06/24 17:05:08;;;;;;;4.93;4.82;;;;;;;30.23;54.86;96789.19;4964121;28;20578;-60
2023/06/24 17:07:34;;;;;;;4.55;4.45;;;;;;;30.14;54.23;96792.19;4965454;28;20054;-61
2023/06/24 17:10:02;;;;;;;4.70;4.60;;;;;;;30.16;54.72;96812.50;4965705;28;20062;-60
2023/06/24 17:12:29;;;;;;;4.28;4.18;;;;;;;30.19;53.76;96811.47;4979712;28;20055;-60
2023/06/24 17:14:56;;;;;;;4.47;4.38;;;;;;;29.94;53.68;96790.19;4955403;28;20051;-62
2023/06/24 17:17:22;;;;;;;4.78;4.68;;;;;;;29.82;52.95;96805.66;4945930;28;20059;-61
2023/06/24 17:19:49;;;;;;;4.47;4.38;;;;;;;29.81;52.22;96824.09;4946414;28;20110;-61
2023/06/24 17:22:16;;;;;;;4.55;4.45;;;;;;;29.35;52.19;96743.38;4945754;28;20047;-61
2023/06/24 17:24:42;;;;;;;4.43;4.32;;;;;;;29.76;50.94;96818.31;4946484;28;20051;-60
2023/06/24 17:27:09;;;;;;;4.78;4.68;;;;;;;29.67;51.00;96813.53;4943653;29;20066;-61
2023/06/24 17:29:36;;;;;;;4.50;4.40;;;;;;;29.80;50.63;96830.31;4959731;28;20043;-61
2023/06/24 17:32:04;;;;;;;4.25;4.15;;;;;;;29.82;51.63;96822.81;4962923;28;20526;-61
2023/06/24 17:34:30;;;;;;;4.25;4.15;;;;;;;29.79;54.37;96823.81;4965198;28;20055;-61
2023/06/24 17:36:57;;;;;;;4.22;4.13;;;;;;;29.40;56.09;96769.09;4964826;28;20058;-60
2023/06/24 17:39:24;;;;;;;4.93;4.82;;;;;;;29.52;57.64;96821.41;4963565;28;20314;-61
2023/06/24 17:41:53;;;;;;;4.25;4.15;;;;;;;29.53;57.74;96831.53;4964695;28;20078;-60
2023/06/24 17:44:20;;;;;;;4.20;4.10;;;;;;;29.46;57.08;96834.84;4963795;28;20078;-61
2023/06/24 17:46:46;;;;;;;4.40;4.30;;;;;;;29.42;58.17;96828.53;4962976;28;20124;-60
2023/06/24 17:49:13;;;;;;;4.47;4.38;;;;;;;29.32;58.75;96838.56;4963295;28;20502;-61
2023/06/24 17:51:40;;;;;;;4.65;4.55;;;;;;;29.29;57.63;96836.69;4961997;28;20073;-60
2023/06/24 17:54:06;;;;;;;4.30;4.20;;;;;;;29.02;59.83;96817.88;4963128;28;20487;-60
2023/06/24 17:56:33;;;;;;;4.82;4.72;;;;;;;28.69;61.46;96788.13;4963120;28;20055;-60
2023/06/24 17:59:00;;;;;;;4.05;3.95;;;;;;;28.73;63.55;96834.31;4977794;28;20544;-59
2023/06/24 18:01:28;;;;;;;4.15;4.05;;;;;;;28.69;63.68;96828.81;4964728;28;20082;-60
2023/06/24 18:03:56;;;;;;;3.90;3.80;;;;;;;28.42;64.10;96826.31;4964790;28;20529;-62
2023/06/24 18:06:23;;;;;;;4.07;3.97;;;;;;;27.98;64.06;96791.34;4965817;28;20078;-60
2023/06/24 18:08:50;;;;;;;3.70;3.60;;;;;;;28.30;63.52;96832.28;4969304;28;20516;-60
2023/06/24 18:11:16;;;;;;;3.88;3.78;;;;;;;26.72;64.07;96634.03;4968993;28;20129;-60
2023/06/24 18:13:43;;;;;;;4.22;4.13;;;;;;;27.61;66.96;96808.03;4968929;28;20059;-61
2023/06/24 18:16:10;;;;;;;3.60;3.50;;;;;;;27.18;70.17;96830.63;4968686;28;20077;-60
2023/06/24 18:18:36;;;;;;;3.85;3.75;;;;;;;26.66;72.55;96840.63;4968835;28;20514;-60
2023/06/24 18:21:03;;;;;;;3.72;3.63;;;;;;;26.26;72.28;96746.38;4983204;28;20061;-60
2023/06/24 18:23:30;;;;;;;3.38;3.28;;;;;;;26.72;73.69;96841.53;4968748;28;20062;-60
2023/06/24 18:25:57;;;;;;;3.75;3.65;;;;;;;26.60;73.29;96797.03;4968222;28;20501;-60
2023/06/24 18:28:24;;;;;;;3.40;3.30;;;;;;;26.92;73.60;96835.25;4968306;28;20057;-60
2023/06/24 18:30:51;;;;;;;3.53;3.42;;;;;;;26.36;71.39;96762.13;4968328;28;20050;-60
2023/06/24 18:33:18;;;;;;;3.50;3.40;;;;;;;26.92;70.50;96864.47;4968352;28;20046;-60
2023/06/24 18:35:45;;;;;;;3.70;3.60;;;;;;;26.86;70.13;96855.03;4968281;28;20518;-62
2023/06/24 18:38:11;;;;;;;3.70;3.60;;;;;;;26.86;69.77;96855.03;4968120;28;20054;-61
2023/06/24 18:40:38;;;;;;;3.42;3.33;;;;;;;26.77;69.64;96874.97;4968759;28;20047;-59
2023/06/24 18:43:05;;;;;;;3.17;3.08;;;;;;;26.68;70.25;96861.59;4968200;28;20062;-60
2023/06/24 18:45:32;;;;;;;3.30;3.20;;;;;;;26.57;70.18;96849.16;4982469;28;20069;-60
2023/06/24 18:47:58;;;;;;;3.65;3.55;;;;;;;26.69;69.97;96862.38;4967570;28;20525;-60
2023/06/24 18:50:26;;;;;;;3.38;3.28;;;;;;;26.68;69.53;96866.50;4968095;28;20058;-62
2023/06/24 18:52:53;;;;;;;3.58;3.47;;;;;;;26.59;69.79;96860.81;4968226;28;20386;-60
2023/06/24 18:55:20;;;;;;;3.50;3.40;;;;;;;26.51;70.34;96868.09;4968134;28;20070;-61
2023/06/24 18:57:47;;;;;;;3.67;3.58;;;;;;;26.50;70.40;96869.38;4967578;28;20139;-60
2023/06/24 19:00:14;;;;;;;3.20;3.10;;;;;;;25.81;71.58;96832.50;4967663;28;20057;-61
2023/06/24 19:02:41;;;;;;;3.58;3.47;;;;;;;25.94;71.58;96864.31;4967948;28;20046;-60
2023/06/24 19:05:08;;;;;;;3.63;3.53;;;;;;;25.80;71.45;96870.66;4949123;28;20047;-60
2023/06/24 19:07:35;;;;;;;3.13;3.03;;;;;;;25.64;71.31;96867.38;4962786;28;20059;-60
2023/06/24 19:10:01;;;;;;;3.15;3.05;;;;;;;25.02;71.07;96793.91;4947327;29;20137;-61
2023/06/24 19:12:30;;;;;;;3.30;3.20;;;;;;;25.39;71.41;96859.94;4960865;28;20062;-60
2023/06/24 19:14:57;;;;;;;2.80;2.70;;;;;;;25.17;71.87;96857.25;4967840;28;20057;-60
2023/06/24 19:17:23;;;;;;;3.00;2.90;;;;;;;24.85;72.14;96837.97;4966081;28;20149;-60
2023/06/24 19:19:50;;;;;;;3.17;3.08;;;;;;;25.23;72.05;96869.53;4967543;28;20082;-60
2023/06/24 19:22:17;;;;;;;3.17;3.08;;;;;;;25.17;72.22;96874.25;4967528;28;20093;-62
2023/06/24 19:24:43;;;;;;;3.08;2.97;;;;;;;25.06;72.76;96873.13;4967945;28;20051;-60
2023/06/24 19:27:11;;;;;;;3.20;3.10;;;;;;;25.03;72.72;96874.88;4957345;28;20073;-61
2023/06/24 19:29:37;;;;;;;3.10;3.00;;;;;;;24.58;73.55;96843.53;4958376;28;20470;-60
2023/06/24 19:32:04;;;;;;;3.30;3.20;;;;;;;24.69;74.18;96883.56;4965905;28;20057;-61
2023/06/24 19:34:31;;;;;;;2.90;2.80;;;;;;;24.56;75.10;96874.41;4964466;28;20062;-62
2023/06/24 19:36:58;;;;;;;2.90;2.80;;;;;;;24.57;75.22;96875.97;4966016;28;20047;-61
2023/06/24 19:39:25;;;;;;;2.88;2.78;;;;;;;23.96;75.80;96778.94;4965721;28;20058;-62
2023/06/24 19:41:51;;;;;;;3.05;2.95;;;;;;;24.20;75.76;96834.56;4965703;28;20088;-61
2023/06/24 19:44:18;;;;;;;2.97;2.88;;;;;;;24.44;75.81;96849.78;4980101;28;20066;-61
2023/06/24 19:46:45;;;;;;;3.05;2.95;;;;;;;23.94;75.78;96782.25;4965494;28;20055;-60
2023/06/24 19:49:12;;;;;;;2.70;2.60;;;;;;;24.35;75.98;96869.59;4965841;28;20058;-61
2023/06/24 19:51:39;;;;;;;3.00;2.90;;;;;;;24.27;75.93;96875.97;4966745;28;20070;-61
2023/06/24 19:54:06;;;;;;;2.90;2.80;;;;;;;24.19;75.93;96866.97;4966811;28;20490;-61
2023/06/24 19:56:33;;;;;;;3.03;2.92;;;;;;;24.22;74.92;96866.06;4966592;28;20085;-62
2023/06/24 19:58:59;;;;;;;2.90;2.80;;;;;;;24.27;75.29;96854.13;4965433;28;20128;-60
2023/06/24 20:01:26;;;;;;;2.75;2.65;;;;;;;24.34;74.52;96862.34;4966518;28;20526;-60
2023/06/24 20:03:53;;;;;;;3.00;2.90;;;;;;;24.35;75.02;96852.59;4966830;28;20049;-61
2023/06/24 20:06:19;;;;;;;2.58;2.47;;;;;;;24.38;74.41;96850.84;4966665;28;20054;-61
2023/06/24 20:08:46;;;;;;;3.08;2.97;;;;;;;24.19;75.19;96838.66;4967118;28;20051;-62
2023/06/24 20:11:13;;;;;;;2.80;2.70;;;;;;;24.28;75.72;96847.19;4964772;28;20490;-60
2023/06/24 20:13:41;;;;;;;2.83;2.72;;;;;;;24.33;75.49;96852.25;4966490;28;20137;-62
2023/06/24 20:16:07;;;;;;;2.80;2.70;;;;;;;24.28;76.20;96855.69;4966531;28;20057;-60
2023/06/24 20:18:34;;;;;;;3.08;2.97;;;;;;;24.26;76.40;96855.38;4965097;28;20065;-61
2023/06/24 20:21:01;;;;;;;2.95;2.85;;;;;;;23.84;74.98;96772.91;4966032;28;20051;-61
2023/06/24 20:23:28;;;;;;;3.05;2.95;;;;;;;24.35;75.25;96863.91;4966718;28;20058;-60
2023/06/24 20:25:54;;;;;;;2.85;2.75;;;;;;;24.26;76.41;96866.72;4966509;28;20057;-61
2023/06/24 20:28:22;;;;;;;2.85;2.75;;;;;;;22.66;80.05;96727.31;4965950;28;21384;-61
2023/06/24 20:30:49;;;;;;;2.88;2.78;;;;;;;23.39;81.67;96870.81;4966436;28;20053;-59
2023/06/24 20:33:15;;;;;;;2.75;2.65;;;;;;;23.61;80.52;96865.97;4965319;28;20046;-59
2023/06/24 20:35:42;;;;;;;3.03;2.92;;;;;;;23.69;80.09;96872.94;4964834;28;20059;-59
2023/06/24 20:38:09;;;;;;;2.97;2.88;;;;;;;23.66;80.28;96882.34;4966174;28;20042;-62
2023/06/24 20:40:36;;;;;;;2.80;2.70;;;;;;;23.56;81.42;96880.69;4966209;28;20105;-61
2023/06/24 20:43:03;;;;;;;2.85;2.75;;;;;;;23.59;81.41;96883.41;4965632;28;20054;-62
2023/06/24 20:45:30;;;;;;;2.78;2.67;;;;;;;23.47;82.01;96872.16;4965795;28;20059;-60
2023/06/24 20:47:56;;;;;;;3.00;2.90;;;;;;;23.42;80.05;96842.44;4965895;28;20139;-61
2023/06/24 20:50:23;;;;;;;2.30;2.30;;;;;;;23.00;79.06;96809.22;4966372;28;20066;-62
2023/06/24 20:52:50;;;;;;;2.90;2.80;;;;;;;23.53;79.57;96870.31;4965626;28;20510;-60
2023/06/24 20:55:17;;;;;;;2.70;2.60;;;;;;;23.55;79.58;96879.13;4965992;28;20092;-61
2023/06/24 20:57:44;;;;;;;2.63;2.53;;;;;;;23.52;79.24;96886.47;4980491;28;20146;-60
2023/06/24 21:00:11;;;;;;;2.90;2.80;;;;;;;23.59;78.70;96886.22;4965924;28;20057;-61
2023/06/24 21:02:38;;;;;;;2.83;2.72;;;;;;;23.11;80.30;96849.19;4965586;28;20054;-61
2023/06/24 21:05:06;;;;;;;2.90;2.80;;;;;;;23.26;82.00;96889.88;4980512;28;20054;-61
2023/06/24 21:07:33;;;;;;;2.75;2.65;;;;;;;23.17;82.67;96903.91;4963886;28;20062;-60
2023/06/24 21:09:59;;;;;;;2.63;2.53;;;;;;;22.99;82.36;96881.09;4980399;28;20047;-61
2023/06/24 21:12:26;;;;;;;2.75;2.65;;;;;;;22.78;82.43;96859.25;4965375;28;20058;-60
2023/06/24 21:14:53;;;;;;;2.70;2.60;;;;;;;22.53;82.38;96831.81;4965526;28;20085;-60
2023/06/24 21:17:19;;;;;;;2.50;2.40;;;;;;;23.14;81.54;96911.22;4965541;28;20130;-60
2023/06/24 21:19:46;;;;;;;2.83;2.72;;;;;;;23.12;81.46;96915.78;4965891;28;20062;-60